Terminal Aerodrome Forecast
Issued by NWS Caribou, ME

Home | Current Version | Previous Version | Text Only | Print | Product List | Glossary On
Versions: 1 2 3 4 5 6 7 8 9 10 11 12 13 14 15 16 17 18 19
000
FTUS41 KCAR 050606 AAA
TAFBGR
TAF AMD
KBGR 050606Z 0506/0606 VRB03KT 3SM BR BKN002
      TEMPO 0506/0510 1SM BR BKN002
     FM051200 00000KT P6SM SCT200
     FM051600 24006KT 6SM -SHRA BKN090
     FM052200 25008KT P6SM BKN250=

USA.gov is the U.S. government's official web portal to all federal, state and local government web resources and services.